createdAt,value
2023-01-26T00:00:26.316Z,20.80
2023-01-26T00:01:26.284Z,21.10
2023-01-26T00:02:26.314Z,20.40
2023-01-26T00:03:26.271Z,21.40
2023-01-26T00:04:26.244Z,21.50
2023-01-26T00:05:26.256Z,22.00
2023-01-26T00:06:26.243Z,20.30
2023-01-26T00:07:26.221Z,21.40
2023-01-26T00:08:26.208Z,22.00
2023-01-26T00:09:26.199Z,20.80
2023-01-26T00:10:26.200Z,21.60
2023-01-26T00:11:26.174Z,21.20
2023-01-26T00:12:26.183Z,22.70
2023-01-26T00:13:26.156Z,20.80
2023-01-26T00:14:26.144Z,20.60
2023-01-26T00:15:26.146Z,20.90
2023-01-26T00:16:26.209Z,21.50
2023-01-26T00:17:26.408Z,21.10
2023-01-26T00:18:26.103Z,21.50
2023-01-26T00:19:26.084Z,20.00
2023-01-26T00:20:26.076Z,20.40
2023-01-26T00:21:26.122Z,20.70
2023-01-26T00:22:26.053Z,19.50
2023-01-26T00:23:26.045Z,19.50
2023-01-26T00:24:26.045Z,19.70
2023-01-26T00:25:26.021Z,19.90
2023-01-26T00:26:26.015Z,19.60
2023-01-26T00:27:26.020Z,18.20
2023-01-26T00:28:25.999Z,18.00
2023-01-26T00:29:25.981Z,18.30
2023-01-26T00:30:25.983Z,19.50
2023-01-26T00:31:26.041Z,18.80
2023-01-26T00:32:25.981Z,19.20
2023-01-26T00:33:25.940Z,19.40
2023-01-26T00:34:25.932Z,19.10
2023-01-26T00:35:25.931Z,18.50
2023-01-26T00:36:25.931Z,20.40
2023-01-26T00:37:25.919Z,19.20
2023-01-26T00:38:25.888Z,19.60
2023-01-26T00:39:25.876Z,19.10
2023-01-26T00:40:25.874Z,19.50
2023-01-26T00:41:25.854Z,20.20
2023-01-26T00:42:25.869Z,20.20
2023-01-26T00:43:25.833Z,20.90
2023-01-26T00:44:25.828Z,19.40
2023-01-26T00:45:25.824Z,20.30
2023-01-26T00:46:25.875Z,20.20
2023-01-26T00:47:25.792Z,19.20
2023-01-26T00:48:25.792Z,19.00
2023-01-26T00:49:25.773Z,18.90
2023-01-26T00:50:25.779Z,18.60
2023-01-26T00:51:25.745Z,19.00
2023-01-26T00:52:25.748Z,18.60
2023-01-26T00:53:25.734Z,18.80
2023-01-26T00:54:25.722Z,18.90
2023-01-26T00:55:25.729Z,19.10
2023-01-26T00:56:25.688Z,18.40
2023-01-26T00:57:25.680Z,20.90
2023-01-26T00:58:25.683Z,19.10
2023-01-26T00:59:25.668Z,18.70
2023-01-26T01:00:25.667Z,18.50
2023-01-26T01:01:25.648Z,19.40
2023-01-26T01:02:25.628Z,19.50
2023-01-26T01:03:25.641Z,19.50
2023-01-26T01:04:25.621Z,20.90
2023-01-26T01:05:25.600Z,19.10
2023-01-26T01:06:25.591Z,20.20
2023-01-26T01:07:25.608Z,19.80
2023-01-26T01:08:25.564Z,19.30
2023-01-26T01:09:25.554Z,19.00
2023-01-26T01:10:25.545Z,19.80
2023-01-26T01:11:25.533Z,19.50
2023-01-26T01:12:25.543Z,18.40
2023-01-26T01:13:25.514Z,19.60
2023-01-26T01:14:25.503Z,19.80
2023-01-26T01:15:25.493Z,20.40
2023-01-26T01:16:25.560Z,21.50
2023-01-26T01:17:25.489Z,21.70
2023-01-26T01:18:25.459Z,23.90
2023-01-26T01:19:25.489Z,23.80
2023-01-26T01:20:25.453Z,24.90
2023-01-26T01:21:25.430Z,24.90
2023-01-26T01:22:25.412Z,24.40
2023-01-26T01:23:25.414Z,22.90
2023-01-26T01:24:25.394Z,23.60
2023-01-26T01:25:25.397Z,24.70
2023-01-26T01:26:25.381Z,26.30
2023-01-26T01:27:25.365Z,25.80
2023-01-26T01:28:25.366Z,26.10
2023-01-26T01:29:25.342Z,25.60
2023-01-26T01:30:25.358Z,25.90
2023-01-26T01:31:25.451Z,25.40
2023-01-26T01:32:25.311Z,26.00
2023-01-26T01:33:25.316Z,28.70
2023-01-26T01:34:25.309Z,26.80
2023-01-26T01:35:25.308Z,27.00
2023-01-26T01:36:25.285Z,27.00
2023-01-26T01:37:25.254Z,27.40
2023-01-26T01:38:25.253Z,28.80
2023-01-26T01:39:25.239Z,27.30
2023-01-26T01:40:25.229Z,27.90
2023-01-26T01:41:25.235Z,29.30
2023-01-26T01:42:25.213Z,28.40
2023-01-26T01:43:25.193Z,29.30
2023-01-26T01:44:25.189Z,27.00
2023-01-26T01:45:25.195Z,28.70
2023-01-26T01:46:25.186Z,30.10
2023-01-26T01:47:25.151Z,29.80
2023-01-26T01:48:25.139Z,30.00
2023-01-26T01:49:25.127Z,29.20
2023-01-26T01:50:25.147Z,29.50
2023-01-26T01:51:25.111Z,29.00
2023-01-26T01:52:25.097Z,30.90
2023-01-26T01:53:25.088Z,28.60
2023-01-26T01:54:25.079Z,28.20
2023-01-26T01:55:25.067Z,27.60
2023-01-26T01:56:25.075Z,28.10
2023-01-26T01:57:25.047Z,27.70
2023-01-26T01:58:25.041Z,28.40
2023-01-26T01:59:25.025Z,27.30
2023-01-26T02:00:25.025Z,26.00
2023-01-26T02:01:25.022Z,28.70
2023-01-26T02:02:25.001Z,29.90
2023-01-26T02:03:24.983Z,26.80
2023-01-26T02:04:24.967Z,27.20
2023-01-26T02:05:24.961Z,28.30
2023-01-26T02:06:24.980Z,27.60
2023-01-26T02:07:24.935Z,27.20
2023-01-26T02:08:24.930Z,26.50
2023-01-26T02:09:24.916Z,28.50
2023-01-26T02:10:24.908Z,27.70
2023-01-26T02:11:24.914Z,28.20
2023-01-26T02:12:24.895Z,29.30
2023-01-26T02:13:24.878Z,29.00
2023-01-26T02:14:24.864Z,29.00
2023-01-26T02:15:24.851Z,27.30
2023-01-26T02:16:24.890Z,25.80
2023-01-26T02:17:24.840Z,28.60
2023-01-26T02:18:24.827Z,28.30
2023-01-26T02:19:24.814Z,25.10
2023-01-26T02:20:24.802Z,27.40
2023-01-26T02:21:24.782Z,27.40
2023-01-26T02:22:24.808Z,26.10
2023-01-26T02:23:24.764Z,26.90
2023-01-26T02:24:24.812Z,25.90
2023-01-26T02:25:24.757Z,30.00
2023-01-26T02:26:24.745Z,29.20
2023-01-26T02:27:24.722Z,27.30
2023-01-26T02:28:24.739Z,29.60
2023-01-26T02:29:24.707Z,26.60
2023-01-26T02:30:24.691Z,26.80
2023-01-26T02:31:24.759Z,27.10
2023-01-26T02:32:24.678Z,25.90
2023-01-26T02:33:24.689Z,28.00
2023-01-26T02:34:24.655Z,26.70
2023-01-26T02:35:24.653Z,27.80
2023-01-26T02:36:24.635Z,26.60
2023-01-26T02:37:24.615Z,26.20
2023-01-26T02:38:24.621Z,26.50
2023-01-26T02:39:24.627Z,28.10
2023-01-26T02:40:24.590Z,28.70
2023-01-26T02:41:24.699Z,25.70
2023-01-26T02:42:24.572Z,25.80
2023-01-26T02:43:24.570Z,25.90
2023-01-26T02:44:24.543Z,25.20
2023-01-26T02:45:24.541Z,25.60
2023-01-26T02:46:24.601Z,27.50
2023-01-26T02:47:24.540Z,26.60
2023-01-26T02:48:24.501Z,26.50
2023-01-26T02:49:24.502Z,29.10
2023-01-26T02:50:24.524Z,27.90
2023-01-26T02:51:24.473Z,28.90
2023-01-26T02:52:24.470Z,26.50
2023-01-26T02:53:24.466Z,27.00
2023-01-26T02:54:24.439Z,27.40
2023-01-26T02:55:24.427Z,28.00
2023-01-26T02:56:24.418Z,28.50
2023-01-26T02:57:24.425Z,27.00
2023-01-26T02:58:24.411Z,29.00
2023-01-26T02:59:24.381Z,25.20
2023-01-26T03:00:24.385Z,25.50
2023-01-26T03:01:24.363Z,25.40
2023-01-26T03:02:24.380Z,25.10
2023-01-26T03:03:24.362Z,25.10
2023-01-26T03:04:24.352Z,26.20
2023-01-26T03:05:24.324Z,24.40
2023-01-26T03:06:24.319Z,23.60
2023-01-26T03:07:24.304Z,24.00
2023-01-26T03:08:24.304Z,23.30
2023-01-26T03:09:24.291Z,21.20
2023-01-26T03:10:24.297Z,21.70
2023-01-26T03:11:24.259Z,22.40
2023-01-26T03:12:24.264Z,23.00
2023-01-26T03:13:24.260Z,23.70
2023-01-26T03:14:24.228Z,23.00
2023-01-26T03:15:24.216Z,22.20
2023-01-26T03:16:24.285Z,22.70
2023-01-26T03:17:24.198Z,20.80
2023-01-26T03:18:24.193Z,21.10
2023-01-26T03:19:24.193Z,19.90
2023-01-26T03:20:24.152Z,21.00
2023-01-26T03:21:24.147Z,21.70
2023-01-26T03:22:24.159Z,20.90
2023-01-26T03:23:24.131Z,17.60
2023-01-26T03:24:24.251Z,20.10
2023-01-26T03:25:24.106Z,19.80
2023-01-26T03:26:24.091Z,20.10
2023-01-26T03:27:24.086Z,18.50
2023-01-26T03:28:24.080Z,18.90
2023-01-26T03:29:24.083Z,19.10
2023-01-26T03:30:24.060Z,17.60
2023-01-26T03:31:24.172Z,20.10
2023-01-26T03:32:24.029Z,19.70
2023-01-26T03:33:24.027Z,19.40
2023-01-26T03:34:24.036Z,19.90
2023-01-26T03:35:24.001Z,19.90
2023-01-26T03:36:23.999Z,18.80
2023-01-26T03:37:23.984Z,19.70
2023-01-26T03:38:23.970Z,17.80
2023-01-26T03:39:23.975Z,17.60
2023-01-26T03:40:23.963Z,17.10
2023-01-26T03:41:23.941Z,17.00
2023-01-26T03:42:23.954Z,18.10
2023-01-26T03:43:23.911Z,17.10
2023-01-26T03:44:23.929Z,17.70
2023-01-26T03:45:23.891Z,17.80
2023-01-26T03:46:23.964Z,17.70
2023-01-26T03:47:23.884Z,17.50
2023-01-26T03:48:23.864Z,18.20
2023-01-26T03:49:23.846Z,17.60
2023-01-26T03:50:23.846Z,17.60
2023-01-26T03:51:23.827Z,16.70
2023-01-26T03:52:23.838Z,16.20
2023-01-26T03:53:23.815Z,15.30
2023-01-26T03:54:23.796Z,16.50
2023-01-26T03:55:23.792Z,15.40
2023-01-26T03:56:23.777Z,15.70
2023-01-26T03:57:23.785Z,15.90
2023-01-26T03:58:23.758Z,14.50
2023-01-26T03:59:23.745Z,14.50
2023-01-26T04:00:23.761Z,15.30
2023-01-26T04:01:23.820Z,14.90
2023-01-26T04:02:23.787Z,16.00
2023-01-26T04:03:23.705Z,15.80
2023-01-26T04:04:23.690Z,17.00
2023-01-26T04:05:23.691Z,15.20
2023-01-26T04:06:23.690Z,13.40
2023-01-26T04:07:23.670Z,14.70
2023-01-26T04:08:23.674Z,14.60
2023-01-26T04:09:23.665Z,14.30
2023-01-26T04:10:23.624Z,13.50
2023-01-26T04:11:23.618Z,13.00
2023-01-26T04:12:23.611Z,13.80
2023-01-26T04:13:23.596Z,14.30
2023-01-26T04:14:23.602Z,14.60
2023-01-26T04:15:23.568Z,14.10
2023-01-26T04:16:23.663Z,13.50
2023-01-26T04:17:23.553Z,15.90
2023-01-26T04:18:23.546Z,13.90
2023-01-26T04:19:23.552Z,13.20
2023-01-26T04:20:23.538Z,12.80
2023-01-26T04:21:23.504Z,13.60
2023-01-26T04:22:23.504Z,13.40
2023-01-26T04:23:23.503Z,12.90
2023-01-26T04:24:23.540Z,13.40
2023-01-26T04:25:23.468Z,12.90
2023-01-26T04:26:23.489Z,12.80
2023-01-26T04:27:23.449Z,13.40
2023-01-26T04:28:23.436Z,13.40
2023-01-26T04:29:24.117Z,13.20
2023-01-26T04:30:23.483Z,13.30
2023-01-26T04:31:23.438Z,13.70
2023-01-26T04:32:23.413Z,13.60
2023-01-26T04:33:23.384Z,14.00
2023-01-26T04:34:23.384Z,11.70
2023-01-26T04:35:23.358Z,11.80
2023-01-26T04:36:23.371Z,11.80
2023-01-26T04:37:23.343Z,12.70
2023-01-26T04:38:23.329Z,12.40
2023-01-26T04:39:23.331Z,11.80
2023-01-26T04:40:23.345Z,11.30
2023-01-26T04:41:23.313Z,11.20
2023-01-26T04:42:23.309Z,11.00
2023-01-26T04:43:23.274Z,10.80
2023-01-26T04:44:23.266Z,11.60
2023-01-26T04:45:23.275Z,10.50
2023-01-26T04:46:23.239Z,11.70
2023-01-26T04:47:23.236Z,11.10
2023-01-26T04:48:23.239Z,10.60
2023-01-26T04:49:23.210Z,11.10
2023-01-26T04:50:23.201Z,11.90
2023-01-26T04:51:23.189Z,10.30
2023-01-26T04:52:23.201Z,11.20
2023-01-26T04:53:23.169Z,10.60
2023-01-26T04:54:23.157Z,9.90
2023-01-26T04:55:23.146Z,10.40
2023-01-26T04:56:23.160Z,10.10
2023-01-26T04:57:23.143Z,10.10
2023-01-26T04:58:23.107Z,10.00
2023-01-26T04:59:23.100Z,10.00
2023-01-26T05:00:23.095Z,9.70
2023-01-26T05:01:23.158Z,10.30
2023-01-26T05:02:23.096Z,10.00
2023-01-26T05:03:23.065Z,9.60
2023-01-26T05:04:23.098Z,8.60
2023-01-26T05:05:23.061Z,8.90
2023-01-26T05:06:23.046Z,7.50
2023-01-26T05:07:23.046Z,7.80
2023-01-26T05:08:23.017Z,8.00
2023-01-26T05:09:23.005Z,7.90
2023-01-26T05:10:23.004Z,8.10
2023-01-26T05:11:23.000Z,8.80
2023-01-26T05:12:22.985Z,8.40
2023-01-26T05:13:23.022Z,8.30
2023-01-26T05:14:22.953Z,7.30
2023-01-26T05:15:22.946Z,8.30
2023-01-26T05:16:22.942Z,8.70
2023-01-26T05:17:22.923Z,7.90
2023-01-26T05:18:23.785Z,8.00
2023-01-26T05:19:22.953Z,7.50
2023-01-26T05:20:22.904Z,8.20
2023-01-26T05:21:22.868Z,8.10
2023-01-26T05:22:22.896Z,8.70
2023-01-26T05:23:22.879Z,7.60
2023-01-26T05:24:23.012Z,8.10
2023-01-26T05:25:22.835Z,8.50
2023-01-26T05:26:22.833Z,8.00
2023-01-26T05:27:22.863Z,8.50
2023-01-26T05:28:22.807Z,7.80
2023-01-26T05:29:22.801Z,8.70
2023-01-26T05:30:22.778Z,8.30
2023-01-26T05:31:22.782Z,8.50
2023-01-26T05:32:22.770Z,8.40
2023-01-26T05:33:22.755Z,8.50
2023-01-26T05:34:22.741Z,8.30
2023-01-26T05:35:22.743Z,8.90
2023-01-26T05:36:22.711Z,8.80
2023-01-26T05:37:22.714Z,8.60
2023-01-26T05:38:22.703Z,8.10
2023-01-26T05:39:22.674Z,9.20
2023-01-26T05:40:22.675Z,8.90
2023-01-26T05:41:22.661Z,9.40
2023-01-26T05:42:22.643Z,8.90
2023-01-26T05:43:22.663Z,8.60
2023-01-26T05:44:22.682Z,8.30
2023-01-26T05:45:22.629Z,7.60
2023-01-26T05:46:22.625Z,8.60
2023-01-26T05:47:22.601Z,8.70
2023-01-26T05:48:22.608Z,9.00
2023-01-26T05:49:22.587Z,8.70
2023-01-26T05:50:22.564Z,8.70
2023-01-26T05:51:22.558Z,8.70
2023-01-26T05:52:22.542Z,8.80
2023-01-26T05:53:22.550Z,8.50
2023-01-26T05:54:22.567Z,8.50
2023-01-26T05:55:22.523Z,8.90
2023-01-26T05:56:22.498Z,8.70
2023-01-26T05:57:22.490Z,8.90
2023-01-26T05:58:22.490Z,8.90
2023-01-26T05:59:22.546Z,9.00
2023-01-26T06:00:22.456Z,9.40
2023-01-26T06:01:22.482Z,8.40
2023-01-26T06:02:22.491Z,8.20
2023-01-26T06:03:22.444Z,8.10
2023-01-26T06:04:22.463Z,7.90
2023-01-26T06:05:22.406Z,7.80
2023-01-26T06:06:22.448Z,8.70
2023-01-26T06:07:22.394Z,8.10
2023-01-26T06:08:22.375Z,8.20
2023-01-26T06:09:22.372Z,8.30
2023-01-26T06:10:22.364Z,8.20
2023-01-26T06:11:22.347Z,8.70
2023-01-26T06:12:22.365Z,9.00
2023-01-26T06:13:22.313Z,7.80
2023-01-26T06:14:22.357Z,8.30
2023-01-26T06:15:22.326Z,8.70
2023-01-26T06:16:22.344Z,8.60
2023-01-26T06:17:22.286Z,9.00
2023-01-26T06:18:22.274Z,10.00
2023-01-26T06:19:22.261Z,10.60
2023-01-26T06:20:22.252Z,10.00
2023-01-26T06:21:22.270Z,10.20
2023-01-26T06:22:22.225Z,11.20
2023-01-26T06:23:22.223Z,11.00
2023-01-26T06:24:22.236Z,10.70
2023-01-26T06:25:22.192Z,10.90
2023-01-26T06:26:22.177Z,11.20
2023-01-26T06:27:22.181Z,10.70
2023-01-26T06:28:22.162Z,11.40
2023-01-26T06:29:22.150Z,10.60
2023-01-26T06:30:22.147Z,11.30
2023-01-26T06:31:22.281Z,10.20
2023-01-26T06:32:22.144Z,11.90
2023-01-26T06:33:22.115Z,11.10
2023-01-26T06:34:22.093Z,10.30
2023-01-26T06:35:22.091Z,10.60
2023-01-26T06:36:22.070Z,11.20
2023-01-26T06:37:22.100Z,11.50
2023-01-26T06:38:22.061Z,12.00
2023-01-26T06:39:22.043Z,11.50
2023-01-26T06:40:22.035Z,10.60
2023-01-26T06:41:22.040Z,10.80
2023-01-26T06:42:22.096Z,11.10
2023-01-26T06:43:22.005Z,10.60
2023-01-26T06:44:21.992Z,10.80
2023-01-26T06:45:21.995Z,10.70
2023-01-26T06:46:22.056Z,11.20
2023-01-26T06:47:21.973Z,10.70
2023-01-26T06:48:21.957Z,11.20
2023-01-26T06:49:21.970Z,11.90
2023-01-26T06:50:21.939Z,10.80
2023-01-26T06:51:21.912Z,11.80
2023-01-26T06:52:21.921Z,11.10
2023-01-26T06:53:21.897Z,10.20
2023-01-26T06:54:21.890Z,10.30
2023-01-26T06:55:21.871Z,10.50
2023-01-26T06:56:21.864Z,10.70
2023-01-26T06:57:21.870Z,11.30
2023-01-26T06:58:21.843Z,10.60
2023-01-26T06:59:21.831Z,12.20
2023-01-26T07:00:21.823Z,12.00
2023-01-26T07:01:21.867Z,11.10
2023-01-26T07:02:21.907Z,11.50
2023-01-26T07:03:21.790Z,11.80
2023-01-26T07:04:21.783Z,11.50
2023-01-26T07:05:21.788Z,10.90
2023-01-26T07:06:21.770Z,11.10
2023-01-26T07:07:21.738Z,11.30
2023-01-26T07:08:21.755Z,11.50
2023-01-26T07:09:21.714Z,11.50
2023-01-26T07:10:21.709Z,10.50
2023-01-26T07:11:21.704Z,12.10
2023-01-26T07:12:21.687Z,10.80
2023-01-26T07:13:21.719Z,11.80
2023-01-26T07:14:21.671Z,10.60
2023-01-26T07:15:21.659Z,11.00
2023-01-26T07:16:21.682Z,10.50
2023-01-26T07:17:21.639Z,10.90
2023-01-26T07:18:21.644Z,11.60
2023-01-26T07:19:21.614Z,11.80
2023-01-26T07:20:21.616Z,12.10
2023-01-26T07:21:21.604Z,10.60
2023-01-26T07:22:21.580Z,11.90
2023-01-26T07:23:21.593Z,11.80
2023-01-26T07:24:21.654Z,11.70
2023-01-26T07:25:21.555Z,11.30
2023-01-26T07:26:21.544Z,12.20
2023-01-26T07:27:21.538Z,11.40
2023-01-26T07:28:21.536Z,11.60
2023-01-26T07:29:21.521Z,11.80
2023-01-26T07:30:21.520Z,10.90
2023-01-26T07:31:21.635Z,11.20
2023-01-26T07:32:21.481Z,11.30
2023-01-26T07:33:21.488Z,11.00
2023-01-26T07:34:21.479Z,10.60
2023-01-26T07:35:21.455Z,10.30
2023-01-26T07:36:21.440Z,10.80
2023-01-26T07:37:21.436Z,10.50
2023-01-26T07:38:21.428Z,10.70
2023-01-26T07:39:21.404Z,9.70
2023-01-26T07:40:21.391Z,9.80
2023-01-26T07:41:21.384Z,14.00
2023-01-26T07:42:21.372Z,12.70
2023-01-26T07:43:21.378Z,13.20
2023-01-26T07:44:21.348Z,13.70
2023-01-26T07:45:21.357Z,13.90
2023-01-26T07:46:21.376Z,13.80
2023-01-26T07:47:21.318Z,11.80
2023-01-26T07:48:21.298Z,11.10
2023-01-26T07:49:21.309Z,10.50
2023-01-26T07:50:21.287Z,10.40
2023-01-26T07:51:21.282Z,10.30
2023-01-26T07:52:21.262Z,10.20
2023-01-26T07:53:21.324Z,9.70
2023-01-26T07:54:21.252Z,9.30
2023-01-26T07:55:21.232Z,9.20
2023-01-26T07:56:21.221Z,9.70
2023-01-26T07:57:21.209Z,12.00
2023-01-26T07:58:21.206Z,16.50
2023-01-26T07:59:21.214Z,16.60
2023-01-26T08:00:21.179Z,16.40
2023-01-26T08:01:21.199Z,13.60
2023-01-26T08:02:21.160Z,11.40
2023-01-26T08:03:21.155Z,10.50
2023-01-26T08:04:21.141Z,9.50
2023-01-26T08:05:21.126Z,9.00
2023-01-26T08:06:21.125Z,8.80
2023-01-26T08:07:21.108Z,8.20
2023-01-26T08:08:21.103Z,8.20
2023-01-26T08:09:21.074Z,7.80
2023-01-26T08:10:21.077Z,7.90
2023-01-26T08:11:21.059Z,7.90
2023-01-26T08:12:21.048Z,7.90
2023-01-26T08:13:33.739Z,7.60
2023-01-26T08:14:22.045Z,7.50
2023-01-26T08:15:21.018Z,7.30
2023-01-26T08:16:21.054Z,7.60
2023-01-26T08:17:21.006Z,7.50
2023-01-26T08:18:20.982Z,7.30
2023-01-26T08:19:20.996Z,8.50
2023-01-26T08:20:20.970Z,9.00
2023-01-26T08:21:20.960Z,9.50
2023-01-26T08:22:20.949Z,9.00
2023-01-26T08:23:20.941Z,9.80
2023-01-26T08:24:20.997Z,10.50
2023-01-26T08:25:20.918Z,9.60
2023-01-26T08:26:20.991Z,9.80
2023-01-26T08:27:20.893Z,9.40
2023-01-26T08:28:21.318Z,9.40
2023-01-26T08:29:20.883Z,10.50
2023-01-26T08:30:20.857Z,9.50
2023-01-26T08:31:21.034Z,9.80
2023-01-26T08:32:20.838Z,9.70
2023-01-26T08:33:20.823Z,10.60
2023-01-26T08:34:20.830Z,10.60
2023-01-26T08:35:20.807Z,10.70
2023-01-26T08:36:22.577Z,10.60
2023-01-26T08:37:20.784Z,10.80
2023-01-26T08:38:20.783Z,11.10
2023-01-26T08:39:20.784Z,10.70
2023-01-26T08:40:20.756Z,10.80
2023-01-26T08:41:20.749Z,10.30
2023-01-26T08:42:22.560Z,10.20
2023-01-26T08:43:20.718Z,10.80
2023-01-26T08:44:20.707Z,9.90
2023-01-26T08:45:20.754Z,9.90
2023-01-26T08:46:20.707Z,10.00
2023-01-26T08:47:20.676Z,9.30
2023-01-26T08:48:20.677Z,9.70
2023-01-26T08:49:20.677Z,9.50
2023-01-26T08:50:20.657Z,9.20
2023-01-26T08:51:20.646Z,9.30
2023-01-26T08:52:20.625Z,10.30
2023-01-26T08:53:20.610Z,9.80
2023-01-26T08:54:20.606Z,9.60
2023-01-26T08:55:20.605Z,9.30
2023-01-26T08:56:20.601Z,9.80
2023-01-26T08:57:20.592Z,9.20
2023-01-26T08:58:20.577Z,9.20
2023-01-26T08:59:20.556Z,8.60
2023-01-26T09:00:20.564Z,10.00
2023-01-26T09:01:20.578Z,9.40
2023-01-26T09:02:20.633Z,9.40
2023-01-26T09:03:20.568Z,9.70
2023-01-26T09:04:20.514Z,9.20
2023-01-26T09:05:20.518Z,9.10
2023-01-26T09:06:20.483Z,8.90
2023-01-26T09:07:20.474Z,9.40
2023-01-26T09:08:20.454Z,9.50
2023-01-26T09:09:20.448Z,10.30
2023-01-26T09:10:20.463Z,10.40
2023-01-26T09:11:20.424Z,10.20
2023-01-26T09:12:20.411Z,10.00
2023-01-26T09:13:20.401Z,10.20
2023-01-26T09:14:20.392Z,10.20
2023-01-26T09:15:20.402Z,9.50
2023-01-26T09:16:20.406Z,9.60
2023-01-26T09:17:20.361Z,10.00
2023-01-26T09:18:20.443Z,8.40
2023-01-26T09:19:20.340Z,8.60
2023-01-26T09:20:20.326Z,9.10
2023-01-26T09:21:20.322Z,8.90
2023-01-26T09:22:20.300Z,9.40
2023-01-26T09:23:20.300Z,8.30
2023-01-26T09:24:20.341Z,8.10
2023-01-26T09:25:20.304Z,8.10
2023-01-26T09:26:20.311Z,8.70
2023-01-26T09:27:20.249Z,8.50
2023-01-26T09:28:20.255Z,8.50
2023-01-26T09:29:20.244Z,8.90
2023-01-26T09:30:20.328Z,9.20
2023-01-26T09:31:20.295Z,9.00
2023-01-26T09:32:20.207Z,8.70
2023-01-26T09:33:20.201Z,9.30
2023-01-26T09:34:20.183Z,8.40
2023-01-26T09:35:20.170Z,8.00
2023-01-26T09:36:20.183Z,8.40
2023-01-26T09:37:20.154Z,8.40
2023-01-26T09:38:20.138Z,8.40
2023-01-26T09:39:20.159Z,8.80
2023-01-26T09:40:20.128Z,8.90
2023-01-26T09:41:20.124Z,8.50
2023-01-26T09:42:20.097Z,8.10
2023-01-26T09:43:20.101Z,8.40
2023-01-26T09:44:20.080Z,8.90
2023-01-26T09:45:20.076Z,8.40
2023-01-26T09:46:20.109Z,8.60
2023-01-26T09:47:20.051Z,8.40
2023-01-26T09:48:20.041Z,8.70
2023-01-26T09:49:20.027Z,8.80
2023-01-26T09:50:20.036Z,8.70
2023-01-26T09:51:20.024Z,8.90
2023-01-26T09:52:19.994Z,8.70
2023-01-26T09:53:19.981Z,8.80
2023-01-26T09:54:19.966Z,10.20
2023-01-26T09:55:19.967Z,9.60
2023-01-26T09:56:19.967Z,9.40
2023-01-26T09:57:19.946Z,8.80
2023-01-26T09:58:19.923Z,9.70
2023-01-26T09:59:19.914Z,9.20
2023-01-26T10:00:19.895Z,9.30
2023-01-26T10:01:19.964Z,8.80
2023-01-26T10:02:19.942Z,8.90
2023-01-26T10:03:19.871Z,8.50
2023-01-26T10:04:19.861Z,8.30
2023-01-26T10:05:19.866Z,7.90
2023-01-26T10:06:19.839Z,7.80
2023-01-26T10:07:19.850Z,7.80
2023-01-26T10:08:19.819Z,7.90
2023-01-26T10:09:19.803Z,8.00
2023-01-26T10:10:19.813Z,7.40
2023-01-26T10:11:19.789Z,8.10
2023-01-26T10:12:19.824Z,8.30
2023-01-26T10:13:19.771Z,8.60
2023-01-26T10:14:19.764Z,8.20
2023-01-26T10:15:19.751Z,8.00
2023-01-26T10:16:19.732Z,7.50
2023-01-26T10:17:19.734Z,8.00
2023-01-26T10:18:19.739Z,8.30
2023-01-26T10:19:19.714Z,8.30
2023-01-26T10:20:19.718Z,9.50
2023-01-26T10:21:19.677Z,8.50
2023-01-26T10:22:19.700Z,8.40
2023-01-26T10:23:19.663Z,8.40
2023-01-26T10:24:19.707Z,8.80
2023-01-26T10:25:19.632Z,8.30
2023-01-26T10:26:19.645Z,8.10
2023-01-26T10:27:19.627Z,8.40
2023-01-26T10:28:19.627Z,8.60
2023-01-26T10:29:19.598Z,8.50
2023-01-26T10:30:19.754Z,8.90
2023-01-26T10:31:19.691Z,8.90
2023-01-26T10:32:19.596Z,8.10
2023-01-26T10:33:19.556Z,8.30
2023-01-26T10:34:19.553Z,8.80
2023-01-26T10:35:19.558Z,8.40
2023-01-26T10:36:19.543Z,8.50
2023-01-26T10:37:19.528Z,8.20
2023-01-26T10:38:19.547Z,8.40
2023-01-26T10:39:19.497Z,8.10
2023-01-26T10:40:19.477Z,8.50
2023-01-26T10:41:19.476Z,8.60
2023-01-26T10:42:19.488Z,8.90
2023-01-26T10:43:19.475Z,8.80
2023-01-26T10:44:19.443Z,9.10
2023-01-26T10:45:19.431Z,8.70
2023-01-26T10:46:19.460Z,8.60
2023-01-26T10:47:19.432Z,9.30
2023-01-26T10:48:19.419Z,9.40
2023-01-26T10:49:19.392Z,9.50
2023-01-26T10:50:19.380Z,10.00
2023-01-26T10:51:19.365Z,9.40
2023-01-26T10:52:19.370Z,9.70
2023-01-26T10:53:19.337Z,10.60
2023-01-26T10:54:19.334Z,10.20
2023-01-26T10:56:19.971Z,10.10
2023-01-26T10:57:19.966Z,9.40
2023-01-26T10:58:19.946Z,9.50
2023-01-26T10:59:19.981Z,9.90
2023-01-26T11:00:19.934Z,10.20
2023-01-26T11:01:19.991Z,10.60
2023-01-26T11:02:19.920Z,10.00
2023-01-26T11:03:19.936Z,11.50
2023-01-26T11:04:19.896Z,10.20
2023-01-26T11:05:19.865Z,11.10
2023-01-26T11:06:19.857Z,10.80
2023-01-26T11:07:19.847Z,11.90
2023-01-26T11:08:19.865Z,11.90
2023-01-26T11:09:19.865Z,11.20
2023-01-26T11:10:19.829Z,11.20
2023-01-26T11:11:19.804Z,11.20
2023-01-26T11:12:19.805Z,11.60
2023-01-26T11:13:19.796Z,11.60
2023-01-26T11:14:19.788Z,11.70
2023-01-26T11:15:19.781Z,11.00
2023-01-26T11:16:19.807Z,10.10
2023-01-26T11:17:19.743Z,10.30
2023-01-26T11:18:19.730Z,11.30
2023-01-26T11:19:20.998Z,9.90
2023-01-26T11:20:19.731Z,10.20
2023-01-26T11:21:19.700Z,10.10
2023-01-26T11:22:19.692Z,10.40
2023-01-26T11:23:19.710Z,9.70
2023-01-26T11:24:19.701Z,9.90
2023-01-26T11:25:19.658Z,9.50
2023-01-26T11:26:19.637Z,10.00
2023-01-26T11:27:19.658Z,9.90
2023-01-26T11:28:19.629Z,10.00
2023-01-26T11:29:19.638Z,10.80
2023-01-26T11:30:19.600Z,10.30
2023-01-26T11:31:19.644Z,10.10
2023-01-26T11:32:19.586Z,9.60
2023-01-26T11:33:19.581Z,10.20
2023-01-26T11:34:19.575Z,10.80
2023-01-26T11:35:19.552Z,10.20
2023-01-26T11:36:19.535Z,10.30
2023-01-26T11:37:19.529Z,10.00
2023-01-26T11:38:19.525Z,9.00
2023-01-26T11:39:19.519Z,8.80
2023-01-26T11:40:19.492Z,8.70
2023-01-26T11:41:19.506Z,9.10
2023-01-26T11:42:19.479Z,8.90
2023-01-26T11:43:19.460Z,9.80
2023-01-26T11:44:19.476Z,9.50
2023-01-26T11:45:19.449Z,8.70
2023-01-26T11:46:19.447Z,8.90
2023-01-26T11:47:19.424Z,8.70
2023-01-26T11:48:19.399Z,9.20
2023-01-26T11:49:19.418Z,8.40
2023-01-26T11:50:19.387Z,9.40
2023-01-26T11:51:19.410Z,9.00
2023-01-26T11:52:19.368Z,10.00
2023-01-26T11:53:19.358Z,9.60
2023-01-26T11:54:19.352Z,9.60
2023-01-26T11:55:19.329Z,10.60
2023-01-26T11:56:19.326Z,9.80
2023-01-26T11:57:19.331Z,9.90
2023-01-26T11:58:19.306Z,10.70
2023-01-26T11:59:19.295Z,10.20
2023-01-26T12:00:29.611Z,10.80
2023-01-26T12:01:20.269Z,8.90
2023-01-26T12:02:19.332Z,9.50
2023-01-26T12:03:19.271Z,9.60
2023-01-26T12:04:19.244Z,9.40
2023-01-26T12:05:19.226Z,10.30
2023-01-26T12:06:19.225Z,9.40
2023-01-26T12:07:19.230Z,10.10
2023-01-26T12:08:19.195Z,9.80
2023-01-26T12:09:19.185Z,9.60
2023-01-26T12:10:19.170Z,9.90
2023-01-26T12:11:19.171Z,9.50
2023-01-26T12:12:19.182Z,10.10
2023-01-26T12:13:19.154Z,10.30
2023-01-26T12:14:19.144Z,9.90
2023-01-26T12:15:19.128Z,10.50
2023-01-26T12:16:19.120Z,10.10
2023-01-26T12:17:19.327Z,10.70
2023-01-26T12:18:19.088Z,11.90
2023-01-26T12:19:19.079Z,13.90
2023-01-26T12:20:21.214Z,12.70
2023-01-26T12:21:19.049Z,13.40
2023-01-26T12:22:19.060Z,16.90
2023-01-26T12:23:19.047Z,17.00
2023-01-26T12:24:43.524Z,16.20
2023-01-26T12:25:20.578Z,14.80
2023-01-26T12:26:19.003Z,12.10
2023-01-26T12:27:18.988Z,13.40
2023-01-26T12:28:18.982Z,11.80
2023-01-26T12:29:18.966Z,11.70
2023-01-26T12:30:19.074Z,10.80
2023-01-26T12:31:19.075Z,10.70
2023-01-26T12:32:18.938Z,10.80
2023-01-26T12:33:18.939Z,11.00
2023-01-26T12:34:18.908Z,11.00
2023-01-26T12:35:18.939Z,10.80
2023-01-26T12:36:18.896Z,11.90
2023-01-26T12:37:18.885Z,13.00
2023-01-26T12:38:18.890Z,12.50
2023-01-26T12:39:18.867Z,12.50
2023-01-26T12:40:18.870Z,13.40
2023-01-26T12:41:18.832Z,13.80
2023-01-26T12:42:18.840Z,12.80
2023-01-26T12:43:18.819Z,11.80
2023-01-26T12:44:18.823Z,12.20
2023-01-26T12:45:18.878Z,12.50
2023-01-26T12:46:18.906Z,12.90
2023-01-26T12:47:18.768Z,13.20
2023-01-26T12:48:18.760Z,14.90
2023-01-26T12:49:18.819Z,14.70
2023-01-26T12:50:18.761Z,16.10
2023-01-26T12:51:18.727Z,16.40
2023-01-26T12:52:18.725Z,13.90
2023-01-26T12:53:18.707Z,13.40
2023-01-26T12:54:18.720Z,12.80
2023-01-26T12:55:18.697Z,11.90
2023-01-26T12:56:18.678Z,13.30
2023-01-26T12:57:18.673Z,14.60
2023-01-26T12:58:18.658Z,16.60
2023-01-26T12:59:39.227Z,15.50
2023-01-26T13:00:19.656Z,13.60
2023-01-26T13:01:18.643Z,13.80
2023-01-26T13:02:18.632Z,13.90